パゴパゴ の空港の天気 - METARとTAF

パゴパゴ国際空港 ( NSTU / PPG ) - アメリカ領サモア パゴパゴ
飛行場実況気象(Metar)
観測時間12/16 10:50 SST (12/16 21:50 UTC)
風向・風速不定 2m/s
視程10km以上
天気現象弱いしゅう雨
少しの雲 雲底高度 240m
全天の4割程度の雲 雲底高度 490m
全天の8割程度の雲 雲底高度 1220m
全天を覆う雲 雲底高度 3050m
気温26.6℃
湿度88%
気圧1010.8hPa
METARNSTU 162150Z VRB03KT 11SM -SHRA FEW008 SCT016TCU BKN040 OVC100 27/25 A2985 RMK TSE50 TCU NW-N SLP108 T02660245
過去の天気等 Google飛行場航空写真 Wunderground天気予報

過去48時間のMETAR

飛行場予報(TAF)
発表時間: 12/16 09:36 SST (12/16 20:36 UTC)
予報対象時間: 16日10時 SST ~ 17日7時 SST
風向・風速不定 3m/s
視程10km以上
天気現象周辺で雷
全天の4割程度の積乱雲 雲底高度 460m
全天の8割程度の雲 雲底高度 1220m
全天を覆う雲 雲底高度 3050m
16日23時 SST から
風向・風速北東 3m/s
視程10km以上
天気現象周辺でしゅう雨
全天の4割程度の雲 雲底高度 550m
全天の4割程度の雲 雲底高度 1220m
全天の8割程度の雲 雲底高度 3050m
NSTU 162036Z 1621/1718 VRB06KT P6SM VCTS SCT015CB BKN040 OVC100
FM171000 04005KT P6SM VCSH SCT018 SCT040 BKN100